createdAt,value
2023-03-18T00:00:34.476Z,3.31
2023-03-18T00:03:18.570Z,3.27
2023-03-18T00:05:46.463Z,3.24
2023-03-18T00:08:14.274Z,3.20
2023-03-18T00:10:42.104Z,3.16
2023-03-18T00:13:10.630Z,3.14
2023-03-18T00:15:38.501Z,3.09
2023-03-18T00:18:06.676Z,3.06
2023-03-18T00:20:40.524Z,3.00
2023-03-18T00:23:08.878Z,2.90
2023-03-18T00:25:39.023Z,2.85
2023-03-18T00:28:07.658Z,2.83
2023-03-18T00:30:38.892Z,2.82
2023-03-18T00:33:07.435Z,2.82
2023-03-18T00:35:36.437Z,2.80
2023-03-18T00:38:07.747Z,2.80
2023-03-18T00:40:53.737Z,2.78
2023-03-18T00:43:23.581Z,2.75
2023-03-18T00:45:51.489Z,2.77
2023-03-18T00:48:19.334Z,2.78
2023-03-18T00:50:47.175Z,2.79
2023-03-18T00:53:16.595Z,2.80
2023-03-18T00:55:45.261Z,2.79
2023-03-18T00:58:13.506Z,2.77
2023-03-18T01:00:41.696Z,2.78
2023-03-18T01:03:09.595Z,2.78
2023-03-18T01:05:38.332Z,2.74
2023-03-18T01:08:06.345Z,2.73
2023-03-18T01:10:34.459Z,2.70
2023-03-18T01:13:02.676Z,2.68
2023-03-18T01:15:30.487Z,2.68
2023-03-18T01:17:58.491Z,2.68
2023-03-18T01:20:27.186Z,2.68
2023-03-18T01:22:57.120Z,2.69
2023-03-18T01:25:25.362Z,2.69
2023-03-18T01:27:54.462Z,2.75
2023-03-18T01:30:23.759Z,2.79
2023-03-18T01:32:52.409Z,2.82
2023-03-18T01:35:20.324Z,2.85
2023-03-18T01:37:49.286Z,2.87
2023-03-18T01:40:17.862Z,2.89
2023-03-18T01:42:59.343Z,2.91
2023-03-18T01:45:30.371Z,2.92
2023-03-18T01:48:00.323Z,2.92
2023-03-18T01:50:33.512Z,2.98
2023-03-18T01:53:09.347Z,3.00
2023-03-18T01:55:39.989Z,2.98
2023-03-18T01:58:17.294Z,3.03
2023-03-18T02:00:51.722Z,3.09
2023-03-18T02:03:21.416Z,3.11
2023-03-18T02:05:50.468Z,3.12
2023-03-18T02:08:18.580Z,3.13
2023-03-18T02:10:46.654Z,3.12
2023-03-18T02:13:16.337Z,3.03
2023-03-18T02:15:55.473Z,3.06
2023-03-18T02:18:35.517Z,3.01
2023-03-18T02:21:12.599Z,2.96
2023-03-18T02:23:59.735Z,3.00
2023-03-18T02:27:02.563Z,3.02
2023-03-18T02:29:40.369Z,3.02
2023-03-18T02:32:13.972Z,3.04
2023-03-18T02:34:44.316Z,3.06
2023-03-18T02:37:12.810Z,3.07
2023-03-18T02:39:41.672Z,3.08
2023-03-18T02:42:14.449Z,3.07
2023-03-18T02:44:47.949Z,3.06
2023-03-18T02:47:34.377Z,3.03
2023-03-18T02:50:03.835Z,2.99
2023-03-18T02:52:31.818Z,3.00
2023-03-18T02:55:01.793Z,3.12
2023-03-18T02:57:29.686Z,3.13
2023-03-18T02:59:57.605Z,3.03
2023-03-18T03:02:26.433Z,2.92
2023-03-18T03:04:54.421Z,2.90
2023-03-18T03:07:26.942Z,2.87
2023-03-18T03:09:55.275Z,2.84
2023-03-18T03:12:23.452Z,2.81
2023-03-18T03:14:54.344Z,2.81
2023-03-18T03:17:22.824Z,2.83
2023-03-18T03:19:52.235Z,2.80
2023-03-18T03:22:20.078Z,2.78
2023-03-18T03:24:49.404Z,2.78
2023-03-18T03:27:17.849Z,2.76
2023-03-18T03:29:45.840Z,2.75
2023-03-18T03:32:13.866Z,2.73
2023-03-18T03:34:43.482Z,2.72
2023-03-18T03:37:12.703Z,2.66
2023-03-18T03:39:40.947Z,2.63
2023-03-18T03:42:08.905Z,2.63
2023-03-18T03:44:36.692Z,2.63
2023-03-18T03:47:05.046Z,2.60
2023-03-18T03:49:33.394Z,2.57
2023-03-18T03:52:01.456Z,2.56
2023-03-18T03:54:29.832Z,2.54
2023-03-18T03:56:58.349Z,2.53
2023-03-18T03:59:26.401Z,2.50
2023-03-18T04:02:14.354Z,2.51
2023-03-18T04:04:43.555Z,2.51
2023-03-18T04:07:17.697Z,2.52
2023-03-18T04:09:46.741Z,2.54
2023-03-18T04:12:14.831Z,2.57
2023-03-18T04:14:43.361Z,2.63
2023-03-18T04:17:11.604Z,2.70
2023-03-18T04:19:40.155Z,2.75
2023-03-18T04:22:09.824Z,2.82
2023-03-18T04:24:38.792Z,2.90
2023-03-18T04:27:07.746Z,2.93
2023-03-18T04:29:35.541Z,3.03
2023-03-18T04:32:04.367Z,3.07
2023-03-18T04:34:32.798Z,3.07
2023-03-18T04:37:00.673Z,3.08
2023-03-18T04:39:29.057Z,3.10
2023-03-18T04:41:59.799Z,3.10
2023-03-18T04:44:29.193Z,3.14
2023-03-18T04:46:57.153Z,3.20
2023-03-18T04:49:25.710Z,3.29
2023-03-18T04:51:55.057Z,3.32
2023-03-18T04:54:28.457Z,3.32
2023-03-18T04:56:58.118Z,3.33
2023-03-18T04:59:27.593Z,3.36
2023-03-18T05:01:55.825Z,3.37
2023-03-18T05:04:24.258Z,3.37
2023-03-18T05:06:53.436Z,3.39
2023-03-18T05:09:26.254Z,3.37
2023-03-18T05:11:54.499Z,3.42
2023-03-18T05:14:27.437Z,3.45
2023-03-18T05:16:56.139Z,3.49
2023-03-18T05:19:25.377Z,3.54
2023-03-18T05:22:00.517Z,3.55
2023-03-18T05:24:28.676Z,3.59
2023-03-18T05:26:57.494Z,3.62
2023-03-18T05:29:29.876Z,3.63
2023-03-18T05:32:08.972Z,3.66
2023-03-18T05:34:39.193Z,3.69
2023-03-18T05:37:10.101Z,3.75
2023-03-18T05:39:40.221Z,3.77
2023-03-18T05:42:11.569Z,3.82
2023-03-18T05:44:40.510Z,3.83
2023-03-18T05:47:10.097Z,3.84
2023-03-18T05:49:57.826Z,3.86
2023-03-18T05:52:26.600Z,3.85
2023-03-18T05:54:57.001Z,3.86
2023-03-18T05:57:28.552Z,3.89
2023-03-18T06:00:02.464Z,3.90
2023-03-18T06:02:43.790Z,3.95
2023-03-18T06:05:13.755Z,4.02
2023-03-18T06:07:41.899Z,4.08
2023-03-18T06:10:10.617Z,4.13
2023-03-18T06:12:39.581Z,4.18
2023-03-18T06:15:09.162Z,4.25
2023-03-18T06:17:37.644Z,4.29
2023-03-18T06:20:08.886Z,4.35
2023-03-18T06:22:37.204Z,4.41
2023-03-18T06:25:08.267Z,4.48
2023-03-18T06:27:38.504Z,4.56
2023-03-18T06:30:06.844Z,4.61
2023-03-18T06:32:36.958Z,4.69
2023-03-18T06:35:05.334Z,4.79
2023-03-18T06:37:34.093Z,4.86
2023-03-18T06:40:02.250Z,4.95
2023-03-18T06:42:32.240Z,5.06
2023-03-18T06:45:13.798Z,5.16
2023-03-18T06:47:55.278Z,5.23
2023-03-18T06:50:24.468Z,5.33
2023-03-18T06:52:53.176Z,5.42
2023-03-18T06:55:26.803Z,5.51
2023-03-18T06:57:54.750Z,5.60
2023-03-18T07:00:26.896Z,5.71
2023-03-18T07:02:55.485Z,5.75
2023-03-18T07:05:26.630Z,5.82
2023-03-18T07:07:55.808Z,5.91
2023-03-18T07:10:29.671Z,5.95
2023-03-18T07:13:10.743Z,6.02
2023-03-18T07:15:40.296Z,6.12
2023-03-18T07:18:12.076Z,6.19
2023-03-18T07:20:40.368Z,6.22
2023-03-18T07:23:08.339Z,6.30
2023-03-18T07:25:36.723Z,6.39
2023-03-18T07:28:05.902Z,6.50
2023-03-18T07:30:34.250Z,6.59
2023-03-18T07:33:02.543Z,6.69
2023-03-18T07:35:31.171Z,6.87
2023-03-18T07:37:59.460Z,7.06
2023-03-18T07:40:27.444Z,7.24
2023-03-18T07:42:55.779Z,7.44
2023-03-18T07:45:24.002Z,7.67
2023-03-18T07:47:51.899Z,7.91
2023-03-18T07:50:19.903Z,8.10
2023-03-18T07:52:48.241Z,8.26
2023-03-18T07:55:16.465Z,8.45
2023-03-18T07:57:44.312Z,8.67
2023-03-18T08:00:12.702Z,8.85
2023-03-18T08:02:43.698Z,9.01
2023-03-18T08:05:13.796Z,9.13
2023-03-18T08:07:41.766Z,9.25
2023-03-18T08:10:10.178Z,9.35
2023-03-18T08:12:51.557Z,9.48
2023-03-18T08:15:22.441Z,9.63
2023-03-18T08:17:51.209Z,9.74
2023-03-18T08:20:19.357Z,9.84
2023-03-18T08:22:47.356Z,9.85
2023-03-18T08:25:15.916Z,9.94
2023-03-18T08:27:43.866Z,9.99
2023-03-18T08:30:13.767Z,10.02
2023-03-18T08:32:43.830Z,10.16
2023-03-18T08:35:12.971Z,10.29
2023-03-18T08:37:41.244Z,10.39
2023-03-18T08:40:10.059Z,10.46
2023-03-18T08:42:37.870Z,10.61
2023-03-18T08:45:06.529Z,10.72
2023-03-18T08:47:34.298Z,10.91
2023-03-18T08:50:02.087Z,11.01
2023-03-18T08:52:30.088Z,11.06
2023-03-18T08:54:58.603Z,11.08
2023-03-18T08:57:28.074Z,11.07
2023-03-18T08:59:55.956Z,11.08
2023-03-18T09:02:23.780Z,11.13
2023-03-18T09:04:55.148Z,11.27
2023-03-18T09:07:23.064Z,11.39
2023-03-18T09:09:54.093Z,11.46
2023-03-18T09:12:22.747Z,11.48
2023-03-18T09:14:50.656Z,11.45
2023-03-18T09:17:18.523Z,11.36
2023-03-18T09:19:46.385Z,11.32
2023-03-18T09:22:14.337Z,11.35
2023-03-18T09:24:42.363Z,11.48
2023-03-18T09:27:10.821Z,11.54
2023-03-18T09:29:38.701Z,11.63
2023-03-18T09:32:06.912Z,11.72
2023-03-18T09:34:34.723Z,11.77
2023-03-18T09:37:02.456Z,11.84
2023-03-18T09:39:30.262Z,11.93
2023-03-18T09:42:04.334Z,12.04
2023-03-18T09:44:34.848Z,12.20
2023-03-18T09:47:34.269Z,12.38
2023-03-18T09:50:42.136Z,12.49
2023-03-18T09:53:41.954Z,12.65
2023-03-18T09:56:18.035Z,12.78
2023-03-18T09:58:54.723Z,12.93
2023-03-18T10:01:26.456Z,13.13
2023-03-18T10:04:17.071Z,13.26
2023-03-18T10:06:47.264Z,13.40
2023-03-18T10:09:29.128Z,13.50
2023-03-18T10:12:10.340Z,13.63
2023-03-18T10:14:49.990Z,13.79
2023-03-18T10:17:42.637Z,13.96
2023-03-18T10:20:51.775Z,14.09
2023-03-18T10:23:27.439Z,14.13
2023-03-18T10:26:04.809Z,14.12
2023-03-18T10:28:49.304Z,14.15
2023-03-18T10:31:36.625Z,14.34
2023-03-18T10:34:11.938Z,14.44
2023-03-18T10:37:01.384Z,14.50
2023-03-18T10:39:29.701Z,14.50
2023-03-18T10:42:01.849Z,14.58
2023-03-18T10:44:34.292Z,14.64
2023-03-18T10:47:07.146Z,14.73
2023-03-18T10:49:39.251Z,14.81
2023-03-18T10:52:18.411Z,14.86
2023-03-18T10:54:53.024Z,14.86
2023-03-18T10:57:22.693Z,14.96
2023-03-18T10:59:52.318Z,15.02
2023-03-18T11:02:20.426Z,15.06
2023-03-18T11:04:55.381Z,14.96
2023-03-18T11:07:26.759Z,14.92
2023-03-18T11:09:55.103Z,14.97
2023-03-18T11:12:32.600Z,14.95
2023-03-18T11:15:00.774Z,14.88
2023-03-18T11:17:33.276Z,14.87
2023-03-18T11:20:10.968Z,14.89
2023-03-18T11:22:45.861Z,14.96
2023-03-18T11:25:24.200Z,15.04
2023-03-18T11:28:19.932Z,15.20
2023-03-18T11:30:55.346Z,15.43
2023-03-18T11:33:33.393Z,15.53
2023-03-18T11:36:07.095Z,15.71
2023-03-18T11:38:37.277Z,15.88
2023-03-18T11:41:13.353Z,16.02
2023-03-18T11:44:02.542Z,16.08
2023-03-18T11:46:38.812Z,16.15
2023-03-18T11:49:13.158Z,16.24
2023-03-18T11:51:50.000Z,16.27
2023-03-18T11:54:43.312Z,16.37
2023-03-18T11:57:43.499Z,16.41
2023-03-18T12:00:26.574Z,16.30
2023-03-18T12:03:06.083Z,16.28
2023-03-18T12:05:57.074Z,16.13
2023-03-18T12:08:38.549Z,16.08
2023-03-18T12:11:33.098Z,16.10
2023-03-18T12:14:28.513Z,16.12
2023-03-18T12:17:05.468Z,16.20
2023-03-18T12:19:54.936Z,16.23
2023-03-18T12:22:22.648Z,16.21
2023-03-18T12:25:20.761Z,16.23
2023-03-18T12:28:04.283Z,16.21
2023-03-18T12:30:53.236Z,16.21
2023-03-18T12:33:40.344Z,16.25
2023-03-18T12:36:39.894Z,16.32
2023-03-18T12:39:19.983Z,16.33
2023-03-18T12:41:58.013Z,16.38
2023-03-18T12:45:00.977Z,16.39
2023-03-18T12:47:37.160Z,16.49
2023-03-18T12:50:15.416Z,16.57
2023-03-18T12:52:52.289Z,16.58
2023-03-18T12:55:29.430Z,16.58
2023-03-18T12:58:05.376Z,16.70
2023-03-18T13:00:44.296Z,16.81
2023-03-18T13:03:24.815Z,16.76
2023-03-18T13:05:57.373Z,16.81
2023-03-18T13:09:02.182Z,16.84
2023-03-18T13:12:01.908Z,16.95
2023-03-18T13:14:48.636Z,16.98
2023-03-18T13:17:29.745Z,17.04
2023-03-18T13:20:03.892Z,17.12
2023-03-18T13:22:44.154Z,17.11
2023-03-18T13:25:30.525Z,17.14
2023-03-18T13:28:25.584Z,17.09
2023-03-18T13:30:56.183Z,17.05
2023-03-18T13:33:39.402Z,17.00
2023-03-18T13:36:42.469Z,16.92
2023-03-18T13:39:36.301Z,16.97
2023-03-18T13:42:04.120Z,17.04
2023-03-18T13:44:42.475Z,17.08
2023-03-18T13:47:18.096Z,17.18
2023-03-18T13:49:47.411Z,17.32
2023-03-18T13:52:26.835Z,17.39
2023-03-18T13:55:02.181Z,17.35
2023-03-18T13:57:33.433Z,17.39
2023-03-18T14:00:30.665Z,17.37
2023-03-18T14:03:18.088Z,17.39
2023-03-18T14:05:47.089Z,17.44
2023-03-18T14:08:37.291Z,17.35
2023-03-18T14:11:17.364Z,17.26
2023-03-18T14:14:01.868Z,17.20
2023-03-18T14:16:37.786Z,17.18
2023-03-18T14:19:17.798Z,17.20
2023-03-18T14:21:49.318Z,17.17
2023-03-18T14:24:23.212Z,17.14
2023-03-18T14:27:06.825Z,17.07
2023-03-18T14:29:37.490Z,17.10
2023-03-18T14:32:26.178Z,17.09
2023-03-18T14:34:57.539Z,17.15
2023-03-18T14:37:46.816Z,17.22
2023-03-18T14:40:17.834Z,17.26
2023-03-18T14:42:58.366Z,17.28
2023-03-18T14:45:33.689Z,17.23
2023-03-18T14:48:24.435Z,17.16
2023-03-18T14:50:56.090Z,17.05
2023-03-18T14:53:32.555Z,16.89
2023-03-18T14:56:02.910Z,16.76
2023-03-18T14:58:33.774Z,16.65
2023-03-18T15:01:09.789Z,16.58
2023-03-18T15:03:40.862Z,16.49
2023-03-18T15:06:17.816Z,16.38
2023-03-18T15:08:58.874Z,16.18
2023-03-18T15:11:27.078Z,16.03
2023-03-18T15:14:00.079Z,15.93
2023-03-18T15:16:33.091Z,15.90
2023-03-18T15:19:03.694Z,15.88
2023-03-18T15:21:37.651Z,15.81
2023-03-18T15:24:07.830Z,15.75
2023-03-18T15:26:40.901Z,15.73
2023-03-18T15:29:28.854Z,15.73
2023-03-18T15:32:16.482Z,15.71
2023-03-18T15:34:51.118Z,15.68
2023-03-18T15:37:42.658Z,15.67
2023-03-18T15:40:22.527Z,15.61
2023-03-18T15:42:50.849Z,15.49
2023-03-18T15:45:21.871Z,15.39
2023-03-18T15:47:49.770Z,15.30
2023-03-18T15:50:29.138Z,15.26
2023-03-18T15:53:17.931Z,15.22
2023-03-18T15:55:51.771Z,15.12
2023-03-18T15:58:23.456Z,15.07
2023-03-18T16:00:52.775Z,14.99
2023-03-18T16:03:24.647Z,14.90
2023-03-18T16:05:53.903Z,14.79
2023-03-18T16:08:22.870Z,14.71
2023-03-18T16:10:54.797Z,14.63
2023-03-18T16:13:26.679Z,14.58
2023-03-18T16:15:54.613Z,14.47
2023-03-18T16:18:22.903Z,14.39
2023-03-18T16:20:52.925Z,14.34
2023-03-18T16:23:21.257Z,14.24
2023-03-18T16:25:52.623Z,14.09
2023-03-18T16:28:25.898Z,14.01
2023-03-18T16:30:56.362Z,13.94
2023-03-18T16:33:24.998Z,13.89
2023-03-18T16:36:00.402Z,13.79
2023-03-18T16:38:31.255Z,13.67
2023-03-18T16:40:59.163Z,13.59
2023-03-18T16:43:30.397Z,13.50
2023-03-18T16:46:04.239Z,13.44
2023-03-18T16:48:32.641Z,13.31
2023-03-18T16:51:02.794Z,13.22
2023-03-18T16:53:31.700Z,13.12
2023-03-18T16:56:21.975Z,13.04
2023-03-18T16:58:51.407Z,12.95
2023-03-18T17:01:19.599Z,12.85
2023-03-18T17:03:48.136Z,12.75
2023-03-18T17:06:16.275Z,12.64
2023-03-18T17:08:44.120Z,12.51
2023-03-18T17:11:18.405Z,12.40
2023-03-18T17:13:47.340Z,12.28
2023-03-18T17:16:20.200Z,12.18
2023-03-18T17:18:48.241Z,11.99
2023-03-18T17:21:17.090Z,11.85
2023-03-18T17:23:45.776Z,11.73
2023-03-18T17:26:17.093Z,11.60
2023-03-18T17:28:49.333Z,11.47
2023-03-18T17:31:17.502Z,11.34
2023-03-18T17:33:45.458Z,11.22
2023-03-18T17:36:13.289Z,11.08
2023-03-18T17:38:41.188Z,10.95
2023-03-18T17:41:19.357Z,10.82
2023-03-18T17:43:47.408Z,10.66
2023-03-18T17:46:15.257Z,10.56
2023-03-18T17:48:43.850Z,10.46
2023-03-18T17:51:17.409Z,10.38
2023-03-18T17:53:53.227Z,10.22
2023-03-18T17:56:21.057Z,10.10
2023-03-18T17:58:51.561Z,9.98
2023-03-18T18:01:29.296Z,9.87
2023-03-18T18:03:58.861Z,9.77
2023-03-18T18:06:32.140Z,9.67
2023-03-18T18:09:01.178Z,9.55
2023-03-18T18:11:32.281Z,9.43
2023-03-18T18:14:11.197Z,9.32
2023-03-18T18:16:38.998Z,9.21
2023-03-18T18:19:07.803Z,9.09
2023-03-18T18:21:35.632Z,9.00
2023-03-18T18:24:04.491Z,8.91
2023-03-18T18:26:32.420Z,8.81
2023-03-18T18:29:00.415Z,8.69
2023-03-18T18:31:28.907Z,8.60
2023-03-18T18:33:56.829Z,8.49
2023-03-18T18:36:28.196Z,8.40
2023-03-18T18:38:56.747Z,8.31
2023-03-18T18:41:24.572Z,8.20
2023-03-18T18:43:52.774Z,8.10
2023-03-18T18:46:21.967Z,8.01
2023-03-18T18:48:50.181Z,7.93
2023-03-18T18:51:20.229Z,7.87
2023-03-18T18:53:49.660Z,7.80
2023-03-18T18:56:23.597Z,7.75
2023-03-18T18:58:52.888Z,7.69
2023-03-18T19:01:21.165Z,7.66
2023-03-18T19:03:50.009Z,7.66
2023-03-18T19:06:26.146Z,7.57
2023-03-18T19:08:56.664Z,7.48
2023-03-18T19:11:26.268Z,7.39
2023-03-18T19:13:55.340Z,7.32
2023-03-18T19:16:33.503Z,7.25
2023-03-18T19:19:01.819Z,7.19
2023-03-18T19:21:29.620Z,7.14
2023-03-18T19:23:58.376Z,7.06
2023-03-18T19:26:27.236Z,7.00
2023-03-18T19:28:59.486Z,6.98
2023-03-18T19:31:32.235Z,6.93
2023-03-18T19:34:00.507Z,6.92
2023-03-18T19:36:37.680Z,6.86
2023-03-18T19:39:06.180Z,6.80
2023-03-18T19:41:33.966Z,6.74
2023-03-18T19:44:06.294Z,6.70
2023-03-18T19:46:40.837Z,6.61
2023-03-18T19:49:11.810Z,6.54
2023-03-18T19:51:39.665Z,6.41
2023-03-18T19:54:33.831Z,6.34
2023-03-18T19:57:03.972Z,6.26
2023-03-18T19:59:38.738Z,6.25
2023-03-18T20:02:23.629Z,6.19
2023-03-18T20:04:54.426Z,6.15
2023-03-18T20:07:24.800Z,6.15
2023-03-18T20:09:53.945Z,6.14
2023-03-18T20:12:24.222Z,6.15
2023-03-18T20:14:52.540Z,6.15
2023-03-18T20:17:36.106Z,6.13
2023-03-18T20:20:05.319Z,6.05
2023-03-18T20:22:36.615Z,5.90
2023-03-18T20:25:06.073Z,5.83
2023-03-18T20:27:34.380Z,5.76
2023-03-18T20:30:02.349Z,5.67
2023-03-18T20:32:30.231Z,5.62
2023-03-18T20:34:58.141Z,5.65
2023-03-18T20:37:36.179Z,5.49
2023-03-18T20:40:07.286Z,5.43
2023-03-18T20:42:35.155Z,5.43
2023-03-18T20:45:02.963Z,5.39
2023-03-18T20:47:30.786Z,5.41
2023-03-18T20:49:58.645Z,5.36
2023-03-18T20:52:29.784Z,5.26
2023-03-18T20:54:57.966Z,5.19
2023-03-18T20:57:26.332Z,5.15
2023-03-18T20:59:54.197Z,5.15
2023-03-18T21:02:31.431Z,5.14
2023-03-18T21:05:01.714Z,5.11
2023-03-18T21:07:30.172Z,5.09
2023-03-18T21:09:58.012Z,5.09
2023-03-18T21:12:25.960Z,5.09
2023-03-18T21:14:53.730Z,5.07
2023-03-18T21:17:27.377Z,4.99
2023-03-18T21:20:04.996Z,4.92
2023-03-18T21:22:37.053Z,4.88
2023-03-18T21:25:07.702Z,4.86
2023-03-18T21:27:36.887Z,4.83
2023-03-18T21:30:06.178Z,4.81
2023-03-18T21:32:34.463Z,4.78
2023-03-18T21:35:02.438Z,4.76
2023-03-18T21:37:30.604Z,4.73
2023-03-18T21:39:58.460Z,4.67
2023-03-18T21:42:29.399Z,4.64
2023-03-18T21:44:57.467Z,4.64
2023-03-18T21:47:27.046Z,4.68
2023-03-18T21:49:54.882Z,4.69
2023-03-18T21:52:29.382Z,4.66
2023-03-18T21:54:58.385Z,4.62
2023-03-18T21:57:26.702Z,4.55
2023-03-18T21:59:54.557Z,4.48
2023-03-18T22:02:37.631Z,4.41
2023-03-18T22:05:18.211Z,4.28
2023-03-18T22:07:46.872Z,4.19
2023-03-18T22:10:16.862Z,4.10
2023-03-18T22:12:45.337Z,4.15
2023-03-18T22:15:34.059Z,4.19
2023-03-18T22:18:02.834Z,4.23
2023-03-18T22:20:30.685Z,4.26
2023-03-18T22:22:58.459Z,4.24
2023-03-18T22:25:39.126Z,4.23
2023-03-18T22:28:06.940Z,4.24
2023-03-18T22:30:35.525Z,4.19
2023-03-18T22:33:04.581Z,4.09
2023-03-18T22:35:33.003Z,4.01
2023-03-18T22:38:01.088Z,3.96
2023-03-18T22:40:31.609Z,4.00
2023-03-18T22:43:01.653Z,4.02
2023-03-18T22:45:32.218Z,4.04
2023-03-18T22:48:03.033Z,4.06
2023-03-18T22:50:33.947Z,4.08
2023-03-18T22:53:05.995Z,4.03
2023-03-18T22:55:39.873Z,3.95
2023-03-18T22:58:18.995Z,3.86
2023-03-18T23:00:47.914Z,3.78
2023-03-18T23:03:18.741Z,3.72
2023-03-18T23:05:48.566Z,3.69
2023-03-18T23:08:16.534Z,3.68
2023-03-18T23:10:45.004Z,3.69
2023-03-18T23:13:34.500Z,3.73
2023-03-18T23:16:05.284Z,3.71
2023-03-18T23:18:33.527Z,3.69
2023-03-18T23:21:01.834Z,3.69
2023-03-18T23:23:30.488Z,3.74
2023-03-18T23:25:58.423Z,3.74
2023-03-18T23:28:26.556Z,3.67
2023-03-18T23:30:54.524Z,3.58
2023-03-18T23:33:22.291Z,3.57
2023-03-18T23:35:50.312Z,3.55
2023-03-18T23:38:18.172Z,3.49
2023-03-18T23:40:46.034Z,3.32
2023-03-18T23:43:14.010Z,3.27
2023-03-18T23:45:42.033Z,3.33
2023-03-18T23:48:09.991Z,3.40
2023-03-18T23:50:37.850Z,3.42
2023-03-18T23:53:05.758Z,3.42
2023-03-18T23:55:35.228Z,3.44
2023-03-18T23:58:04.090Z,3.44
